sensor_id;sensor_type;location;lat;lon;timestamp;pressure;altitude;pressure_sealevel;temperature;humidity
52653;BME280;39353;42.864;12.014;2023-02-12T00:01:31;99088.55;;;21.02;41.92
52653;BME280;39353;42.864;12.014;2023-02-12T00:03:59;99085.42;;;20.98;41.97
52653;BME280;39353;42.864;12.014;2023-02-12T00:06:26;99077.30;;;20.94;42.04
52653;BME280;39353;42.864;12.014;2023-02-12T00:09:07;99074.02;;;20.90;42.02
52653;BME280;39353;42.864;12.014;2023-02-12T00:11:48;99075.96;;;20.86;42.25
52653;BME280;39353;42.864;12.014;2023-02-12T00:14:29;99074.92;;;20.81;42.25
52653;BME280;39353;42.864;12.014;2023-02-12T00:16:56;99071.29;;;20.78;42.28
52653;BME280;39353;42.864;12.014;2023-02-12T00:19:25;99067.67;;;20.74;42.43
52653;BME280;39353;42.864;12.014;2023-02-12T00:21:52;99065.41;;;20.72;42.43
52653;BME280;39353;42.864;12.014;2023-02-12T00:24:19;99061.45;;;20.68;42.47
52653;BME280;39353;42.864;12.014;2023-02-12T00:27:00;99065.14;;;20.65;42.65
52653;BME280;39353;42.864;12.014;2023-02-12T00:29:28;99064.70;;;20.61;42.61
52653;BME280;39353;42.864;12.014;2023-02-12T00:32:10;99067.13;;;20.58;42.80
52653;BME280;39353;42.864;12.014;2023-02-12T00:34:51;99063.26;;;20.55;42.74
52653;BME280;39353;42.864;12.014;2023-02-12T00:37:18;99059.48;;;20.52;42.84
52653;BME280;39353;42.864;12.014;2023-02-12T00:39:47;99058.64;;;20.48;42.79
52653;BME280;39353;42.864;12.014;2023-02-12T00:42:29;99059.71;;;20.45;42.92
52653;BME280;39353;42.864;12.014;2023-02-12T00:45:10;99062.58;;;20.43;42.93
52653;BME280;39353;42.864;12.014;2023-02-12T00:47:37;99063.34;;;20.41;43.03
52653;BME280;39353;42.864;12.014;2023-02-12T00:50:05;99062.69;;;20.38;43.11
52653;BME280;39353;42.864;12.014;2023-02-12T00:52:47;99061.45;;;20.35;43.06
52653;BME280;39353;42.864;12.014;2023-02-12T00:55:14;99059.73;;;20.33;43.04
52653;BME280;39353;42.864;12.014;2023-02-12T00:57:41;99062.75;;;20.30;43.22
52653;BME280;39353;42.864;12.014;2023-02-12T01:00:09;99063.11;;;20.27;43.12
52653;BME280;39353;42.864;12.014;2023-02-12T01:02:36;99059.27;;;20.25;43.18
52653;BME280;39353;42.864;12.014;2023-02-12T01:05:20;99062.64;;;20.22;43.21
52653;BME280;39353;42.864;12.014;2023-02-12T01:07:50;99065.54;;;20.21;43.38
52653;BME280;39353;42.864;12.014;2023-02-12T01:10:18;99065.62;;;20.18;43.27
52653;BME280;39353;42.864;12.014;2023-02-12T01:13:00;99067.85;;;20.17;43.36
52653;BME280;39353;42.864;12.014;2023-02-12T01:15:41;99066.39;;;20.15;43.33
52653;BME280;39353;42.864;12.014;2023-02-12T01:18:22;99065.83;;;20.14;43.42
52653;BME280;39353;42.864;12.014;2023-02-12T01:20:50;99067.73;;;20.12;43.46
52653;BME280;39353;42.864;12.014;2023-02-12T01:23:32;99066.89;;;20.09;43.61
52653;BME280;39353;42.864;12.014;2023-02-12T01:25:59;99062.66;;;20.08;43.60
52653;BME280;39353;42.864;12.014;2023-02-12T01:28:44;99062.42;;;20.05;43.44
52653;BME280;39353;42.864;12.014;2023-02-12T01:31:28;99064.28;;;20.02;43.64
52653;BME280;39353;42.864;12.014;2023-02-12T01:34:10;99061.33;;;20.01;43.70
52653;BME280;39353;42.864;12.014;2023-02-12T01:36:39;99058.64;;;19.99;43.49
52653;BME280;39353;42.864;12.014;2023-02-12T01:39:19;99051.29;;;19.97;43.54
52653;BME280;39353;42.864;12.014;2023-02-12T01:41:46;99051.86;;;19.95;43.52
52653;BME280;39353;42.864;12.014;2023-02-12T01:44:30;99047.58;;;19.93;43.46
52653;BME280;39353;42.864;12.014;2023-02-12T01:47:02;99045.40;;;19.91;43.46
52653;BME280;39353;42.864;12.014;2023-02-12T01:49:47;99039.42;;;19.90;43.53
52653;BME280;39353;42.864;12.014;2023-02-12T01:52:42;99034.75;;;19.87;43.55
52653;BME280;39353;42.864;12.014;2023-02-12T01:55:26;99039.77;;;19.85;43.59
52653;BME280;39353;42.864;12.014;2023-02-12T01:57:54;99040.29;;;19.84;43.76
52653;BME280;39353;42.864;12.014;2023-02-12T02:00:35;99035.36;;;19.82;43.75
52653;BME280;39353;42.864;12.014;2023-02-12T02:03:16;99038.60;;;19.81;43.77
52653;BME280;39353;42.864;12.014;2023-02-12T02:06:10;99040.84;;;19.78;43.85
52653;BME280;39353;42.864;12.014;2023-02-12T02:08:40;99046.45;;;19.77;43.85
52653;BME280;39353;42.864;12.014;2023-02-12T02:11:24;99043.91;;;19.75;43.78
52653;BME280;39353;42.864;12.014;2023-02-12T02:14:09;99037.09;;;19.73;43.81
52653;BME280;39353;42.864;12.014;2023-02-12T02:21:05;99035.93;;;19.70;43.89
52653;BME280;39353;42.864;12.014;2023-02-12T02:27:14;99028.48;;;19.65;44.03
52653;BME280;39353;42.864;12.014;2023-02-12T02:32:49;99025.50;;;19.62;43.95
52653;BME280;39353;42.864;12.014;2023-02-12T02:35:35;99016.15;;;19.60;43.96
52653;BME280;39353;42.864;12.014;2023-02-12T02:38:19;99017.27;;;19.58;43.98
52653;BME280;39353;42.864;12.014;2023-02-12T02:41:14;99015.39;;;19.57;44.07
52653;BME280;39353;42.864;12.014;2023-02-12T02:44:00;99006.63;;;19.55;44.00
52653;BME280;39353;42.864;12.014;2023-02-12T02:46:50;99008.03;;;19.53;44.14
52653;BME280;39353;42.864;12.014;2023-02-12T02:49:40;99003.23;;;19.53;44.07
52653;BME280;39353;42.864;12.014;2023-02-12T02:52:16;98999.30;;;19.50;44.10
52653;BME280;39353;42.864;12.014;2023-02-12T02:54:53;99001.29;;;19.49;44.17
52653;BME280;39353;42.864;12.014;2023-02-12T03:01:08;99004.42;;;19.45;44.19
52653;BME280;39353;42.864;12.014;2023-02-12T03:12:08;98989.85;;;19.40;44.23
52653;BME280;39353;42.864;12.014;2023-02-12T03:14:50;98987.27;;;19.38;44.25
52653;BME280;39353;42.864;12.014;2023-02-12T03:17:28;98988.84;;;19.37;44.28
52653;BME280;39353;42.864;12.014;2023-02-12T03:20:23;98981.77;;;19.36;44.30
52653;BME280;39353;42.864;12.014;2023-02-12T03:23:25;98982.98;;;19.33;44.45
52653;BME280;39353;42.864;12.014;2023-02-12T03:26:05;98983.10;;;19.32;44.42
52653;BME280;39353;42.864;12.014;2023-02-12T03:28:38;98980.66;;;19.30;44.49
52653;BME280;39353;42.864;12.014;2023-02-12T03:37:48;98980.34;;;19.25;44.40
52653;BME280;39353;42.864;12.014;2023-02-12T03:41:07;98978.89;;;19.25;44.44
52653;BME280;39353;42.864;12.014;2023-02-12T03:44:21;98970.35;;;19.23;44.41
52653;BME280;39353;42.864;12.014;2023-02-12T03:47:08;98969.58;;;19.22;44.41
52653;BME280;39353;42.864;12.014;2023-02-12T03:52:30;98971.38;;;19.19;44.50
52653;BME280;39353;42.864;12.014;2023-02-12T03:55:14;98969.35;;;19.18;44.46
52653;BME280;39353;42.864;12.014;2023-02-12T03:57:48;98968.36;;;19.17;44.41
52653;BME280;39353;42.864;12.014;2023-02-12T04:00:21;98971.19;;;19.16;44.51
52653;BME280;39353;42.864;12.014;2023-02-12T04:03:04;98974.73;;;19.15;44.51
52653;BME280;39353;42.864;12.014;2023-02-12T04:05:37;98976.64;;;19.14;44.48
52653;BME280;39353;42.864;12.014;2023-02-12T04:08:09;98970.02;;;19.12;44.52
52653;BME280;39353;42.864;12.014;2023-02-12T04:13:41;98977.65;;;19.10;44.45
52653;BME280;39353;42.864;12.014;2023-02-12T04:19:12;98970.42;;;19.07;44.53
52653;BME280;39353;42.864;12.014;2023-02-12T04:21:58;98967.40;;;19.06;44.60
52653;BME280;39353;42.864;12.014;2023-02-12T04:24:56;98970.20;;;19.06;44.60
52653;BME280;39353;42.864;12.014;2023-02-12T04:30:40;98978.42;;;19.03;44.58
52653;BME280;39353;42.864;12.014;2023-02-12T04:33:31;98970.82;;;19.02;44.69
52653;BME280;39353;42.864;12.014;2023-02-12T04:36:26;98966.14;;;19.00;44.71
52653;BME280;39353;42.864;12.014;2023-02-12T04:39:16;98964.61;;;18.99;44.74
52653;BME280;39353;42.864;12.014;2023-02-12T04:42:02;98965.33;;;18.98;44.77
52653;BME280;39353;42.864;12.014;2023-02-12T04:44:33;98964.52;;;18.97;44.76
52653;BME280;39353;42.864;12.014;2023-02-12T04:47:16;98962.11;;;18.95;44.71
52653;BME280;39353;42.864;12.014;2023-02-12T04:49:45;98962.70;;;18.95;44.76
52653;BME280;39353;42.864;12.014;2023-02-12T04:52:13;98964.67;;;18.94;44.82
52653;BME280;39353;42.864;12.014;2023-02-12T04:54:41;98963.63;;;18.93;44.71
52653;BME280;39353;42.864;12.014;2023-02-12T04:57:08;98959.55;;;18.92;44.81
52653;BME280;39353;42.864;12.014;2023-02-12T04:59:49;98963.81;;;18.92;44.78
52653;BME280;39353;42.864;12.014;2023-02-12T05:02:31;98967.48;;;18.91;44.77
52653;BME280;39353;42.864;12.014;2023-02-12T05:05:13;98968.92;;;18.89;44.79
52653;BME280;39353;42.864;12.014;2023-02-12T05:07:54;98971.71;;;18.89;44.70
52653;BME280;39353;42.864;12.014;2023-02-12T05:10:22;98973.48;;;18.87;44.74
52653;BME280;39353;42.864;12.014;2023-02-12T05:13:04;98973.75;;;18.87;44.79
52653;BME280;39353;42.864;12.014;2023-02-12T05:15:40;98968.52;;;18.86;44.81
52653;BME280;39353;42.864;12.014;2023-02-12T05:18:09;98964.45;;;18.86;44.90
52653;BME280;39353;42.864;12.014;2023-02-12T05:21:01;98960.56;;;18.85;44.81
52653;BME280;39353;42.864;12.014;2023-02-12T05:23:33;98968.30;;;18.84;44.93
52653;BME280;39353;42.864;12.014;2023-02-12T05:26:19;98973.84;;;18.83;44.93
52653;BME280;39353;42.864;12.014;2023-02-12T05:28:47;98972.61;;;18.82;44.92
52653;BME280;39353;42.864;12.014;2023-02-12T05:31:28;98970.30;;;18.80;44.94
52653;BME280;39353;42.864;12.014;2023-02-12T05:33:55;98973.89;;;18.79;44.97
52653;BME280;39353;42.864;12.014;2023-02-12T05:36:37;98971.17;;;18.78;44.99
52653;BME280;39353;42.864;12.014;2023-02-12T05:39:19;98966.52;;;18.77;45.05
52653;BME280;39353;42.864;12.014;2023-02-12T05:42:00;98960.17;;;18.76;45.04
52653;BME280;39353;42.864;12.014;2023-02-12T05:44:27;98958.95;;;18.75;45.08
52653;BME280;39353;42.864;12.014;2023-02-12T05:46:54;98964.19;;;18.74;45.11
52653;BME280;39353;42.864;12.014;2023-02-12T05:49:35;98960.14;;;18.73;45.08
52653;BME280;39353;42.864;12.014;2023-02-12T05:52:16;98956.66;;;18.71;45.10
52653;BME280;39353;42.864;12.014;2023-02-12T05:54:57;98954.61;;;18.70;45.09
52653;BME280;39353;42.864;12.014;2023-02-12T05:57:39;98960.94;;;18.69;45.15
52653;BME280;39353;42.864;12.014;2023-02-12T06:00:08;98966.59;;;18.68;45.20
52653;BME280;39353;42.864;12.014;2023-02-12T06:02:52;98966.52;;;18.68;45.16
52653;BME280;39353;42.864;12.014;2023-02-12T06:05:19;98960.38;;;18.67;45.04
52653;BME280;39353;42.864;12.014;2023-02-12T06:07:47;98966.84;;;18.66;45.01
52653;BME280;39353;42.864;12.014;2023-02-12T06:10:15;98974.23;;;18.65;45.14
52653;BME280;39353;42.864;12.014;2023-02-12T06:12:42;98975.08;;;18.64;45.12
52653;BME280;39353;42.864;12.014;2023-02-12T06:15:23;98982.15;;;18.63;45.10
52653;BME280;39353;42.864;12.014;2023-02-12T06:17:51;98982.29;;;18.62;45.09
52653;BME280;39353;42.864;12.014;2023-02-12T06:20:18;98976.17;;;18.61;45.08
52653;BME280;39353;42.864;12.014;2023-02-12T06:22:59;98977.20;;;18.60;45.16
52653;BME280;39353;42.864;12.014;2023-02-12T06:25:26;98977.64;;;18.59;45.22
52653;BME280;39353;42.864;12.014;2023-02-12T06:28:07;98987.19;;;18.58;45.12
52653;BME280;39353;42.864;12.014;2023-02-12T06:30:48;98995.31;;;18.56;45.17
52653;BME280;39353;42.864;12.014;2023-02-12T06:33:15;99003.56;;;18.57;45.18
52653;BME280;39353;42.864;12.014;2023-02-12T06:35:56;99012.02;;;18.58;45.16
52653;BME280;39353;42.864;12.014;2023-02-12T06:38:37;99016.31;;;18.58;45.15
52653;BME280;39353;42.864;12.014;2023-02-12T06:41:20;99013.75;;;18.58;45.16
52653;BME280;39353;42.864;12.014;2023-02-12T06:43:50;99010.02;;;18.58;45.14
52653;BME280;39353;42.864;12.014;2023-02-12T06:46:31;99005.36;;;18.57;45.21
52653;BME280;39353;42.864;12.014;2023-02-12T06:48:59;99016.48;;;18.57;45.25
52653;BME280;39353;42.864;12.014;2023-02-12T06:51:28;99019.20;;;18.57;45.20
52653;BME280;39353;42.864;12.014;2023-02-12T06:53:56;99016.98;;;18.57;45.19
52653;BME280;39353;42.864;12.014;2023-02-12T06:56:25;99019.70;;;18.57;45.27
52653;BME280;39353;42.864;12.014;2023-02-12T06:58:55;99022.66;;;18.56;45.19
52653;BME280;39353;42.864;12.014;2023-02-12T07:01:37;99022.36;;;18.56;45.23
52653;BME280;39353;42.864;12.014;2023-02-12T07:04:18;99018.42;;;18.55;45.21
52653;BME280;39353;42.864;12.014;2023-02-12T07:06:59;99016.07;;;18.56;45.30
52653;BME280;39353;42.864;12.014;2023-02-12T07:09:40;99012.52;;;18.55;45.26
52653;BME280;39353;42.864;12.014;2023-02-12T07:12:08;99013.33;;;18.56;45.30
52653;BME280;39353;42.864;12.014;2023-02-12T07:14:35;99012.02;;;18.56;45.28
52653;BME280;39353;42.864;12.014;2023-02-12T07:17:02;99016.04;;;18.56;45.31
52653;BME280;39353;42.864;12.014;2023-02-12T07:19:45;99007.61;;;18.55;45.35
52653;BME280;39353;42.864;12.014;2023-02-12T07:22:13;99009.98;;;18.55;45.38
52653;BME280;39353;42.864;12.014;2023-02-12T07:24:53;99005.55;;;18.54;45.43
52653;BME280;39353;42.864;12.014;2023-02-12T07:27:38;99021.04;;;18.55;45.42
52653;BME280;39353;42.864;12.014;2023-02-12T07:30:06;99032.93;;;18.55;45.41
52653;BME280;39353;42.864;12.014;2023-02-12T07:32:34;99042.91;;;18.55;45.42
52653;BME280;39353;42.864;12.014;2023-02-12T07:35:15;99053.59;;;18.55;45.38
52653;BME280;39353;42.864;12.014;2023-02-12T07:37:55;99055.96;;;18.55;45.55
52653;BME280;39353;42.864;12.014;2023-02-12T07:40:23;99059.77;;;18.55;45.37
52653;BME280;39353;42.864;12.014;2023-02-12T07:43:03;99050.30;;;18.54;45.44
52653;BME280;39353;42.864;12.014;2023-02-12T07:45:49;99042.38;;;18.55;45.52
52653;BME280;39353;42.864;12.014;2023-02-12T07:48:30;99032.75;;;18.56;45.46
52653;BME280;39353;42.864;12.014;2023-02-12T07:51:15;99032.57;;;18.55;45.52
52653;BME280;39353;42.864;12.014;2023-02-12T07:53:45;99023.83;;;18.56;45.07
52653;BME280;39353;42.864;12.014;2023-02-12T07:56:29;99010.72;;;18.53;44.93
52653;BME280;39353;42.864;12.014;2023-02-12T07:59:15;99012.85;;;18.55;45.01
52653;BME280;39353;42.864;12.014;2023-02-12T08:01:57;99019.56;;;18.57;45.28
52653;BME280;39353;42.864;12.014;2023-02-12T08:04:25;99021.27;;;18.58;44.88
52653;BME280;39353;42.864;12.014;2023-02-12T08:06:54;99023.55;;;18.58;44.89
52653;BME280;39353;42.864;12.014;2023-02-12T08:09:35;99031.16;;;18.60;44.89
52653;BME280;39353;42.864;12.014;2023-02-12T08:12:03;99027.93;;;18.62;44.97
52653;BME280;39353;42.864;12.014;2023-02-12T08:14:45;99030.75;;;18.64;45.17
52653;BME280;39353;42.864;12.014;2023-02-12T08:17:26;99034.41;;;18.65;44.72
52653;BME280;39353;42.864;12.014;2023-02-12T08:19:53;99034.96;;;18.65;44.72
52653;BME280;39353;42.864;12.014;2023-02-12T08:22:34;99038.05;;;18.65;44.74
52653;BME280;39353;42.864;12.014;2023-02-12T08:25:01;99036.63;;;18.65;44.70
52653;BME280;39353;42.864;12.014;2023-02-12T08:27:43;99036.55;;;18.66;44.75
52653;BME280;39353;42.864;12.014;2023-02-12T08:30:24;99043.96;;;18.64;44.53
52653;BME280;39353;42.864;12.014;2023-02-12T08:32:51;99043.98;;;18.64;44.67
52653;BME280;39353;42.864;12.014;2023-02-12T08:35:18;99039.41;;;18.64;44.86
52653;BME280;39353;42.864;12.014;2023-02-12T08:37:59;99036.38;;;18.66;44.92
52653;BME280;39353;42.864;12.014;2023-02-12T08:40:41;99038.15;;;18.66;44.83
52653;BME280;39353;42.864;12.014;2023-02-12T08:43:09;99047.88;;;18.67;44.82
52653;BME280;39353;42.864;12.014;2023-02-12T08:45:37;99054.32;;;18.67;44.88
52653;BME280;39353;42.864;12.014;2023-02-12T08:48:18;99053.98;;;18.67;44.97
52653;BME280;39353;42.864;12.014;2023-02-12T08:50:46;99055.73;;;18.67;44.82
52653;BME280;39353;42.864;12.014;2023-02-12T08:53:27;99056.95;;;18.68;44.81
52653;BME280;39353;42.864;12.014;2023-02-12T08:55:54;99056.88;;;18.67;44.57
52653;BME280;39353;42.864;12.014;2023-02-12T08:58:21;99051.45;;;18.67;44.39
52653;BME280;39353;42.864;12.014;2023-02-12T09:01:08;99045.63;;;18.66;43.95
52653;BME280;39353;42.864;12.014;2023-02-12T09:03:36;99050.85;;;18.66;43.98
52653;BME280;39353;42.864;12.014;2023-02-12T09:06:22;99054.38;;;18.65;44.36
52653;BME280;39353;42.864;12.014;2023-02-12T09:08:51;99056.58;;;18.65;44.48
52653;BME280;39353;42.864;12.014;2023-02-12T09:11:21;99057.73;;;18.66;44.50
52653;BME280;39353;42.864;12.014;2023-02-12T09:14:11;99057.84;;;18.68;44.59
52653;BME280;39353;42.864;12.014;2023-02-12T09:16:41;99053.34;;;18.69;44.81
52653;BME280;39353;42.864;12.014;2023-02-12T09:19:23;99054.27;;;18.69;44.55
52653;BME280;39353;42.864;12.014;2023-02-12T09:21:52;99054.10;;;18.69;44.58
52653;BME280;39353;42.864;12.014;2023-02-12T09:24:33;99044.23;;;18.70;44.82
52653;BME280;39353;42.864;12.014;2023-02-12T09:27:14;99039.92;;;18.71;44.63
52653;BME280;39353;42.864;12.014;2023-02-12T09:29:55;99032.54;;;18.70;44.74
52653;BME280;39353;42.864;12.014;2023-02-12T09:32:35;99034.41;;;18.70;44.81
52653;BME280;39353;42.864;12.014;2023-02-12T09:35:17;99036.98;;;18.71;44.73
52653;BME280;39353;42.864;12.014;2023-02-12T09:37:45;99039.07;;;18.70;44.79
52653;BME280;39353;42.864;12.014;2023-02-12T09:40:27;99044.14;;;18.70;44.88
52653;BME280;39353;42.864;12.014;2023-02-12T09:43:17;99046.41;;;18.71;44.80
52653;BME280;39353;42.864;12.014;2023-02-12T09:52:25;99034.96;;;18.73;44.75
52653;BME280;39353;42.864;12.014;2023-02-12T09:55:15;99036.11;;;18.74;44.67
52653;BME280;39353;42.864;12.014;2023-02-12T09:57:45;99036.45;;;18.74;44.79
52653;BME280;39353;42.864;12.014;2023-02-12T10:03:55;99031.72;;;18.75;44.43
52653;BME280;39353;42.864;12.014;2023-02-12T10:07:10;99030.73;;;18.73;43.99
52653;BME280;39353;42.864;12.014;2023-02-12T10:13:26;99028.23;;;18.71;44.29
52653;BME280;39353;42.864;12.014;2023-02-12T10:18:57;99032.34;;;18.71;44.27
52653;BME280;39353;42.864;12.014;2023-02-12T10:25:08;99018.51;;;18.71;44.64
52653;BME280;39353;42.864;12.014;2023-02-12T10:27:50;99017.85;;;18.72;44.95
52653;BME280;39353;42.864;12.014;2023-02-12T10:30:39;99020.23;;;18.72;44.94
52653;BME280;39353;42.864;12.014;2023-02-12T10:33:26;99013.07;;;18.73;44.90
52653;BME280;39353;42.864;12.014;2023-02-12T10:36:42;99013.94;;;18.75;44.98
52653;BME280;39353;42.864;12.014;2023-02-12T10:39:28;99006.71;;;18.76;44.87
52653;BME280;39353;42.864;12.014;2023-02-12T10:44:52;99008.52;;;18.81;44.73
52653;BME280;39353;42.864;12.014;2023-02-12T10:47:33;99001.06;;;18.83;44.63
52653;BME280;39353;42.864;12.014;2023-02-12T10:50:06;98992.42;;;18.85;44.69
52653;BME280;39353;42.864;12.014;2023-02-12T10:52:47;98986.16;;;18.88;44.48
52653;BME280;39353;42.864;12.014;2023-02-12T10:55:35;98979.18;;;18.90;44.52
52653;BME280;39353;42.864;12.014;2023-02-12T10:58:21;98978.68;;;18.93;44.37
52653;BME280;39353;42.864;12.014;2023-02-12T11:00:58;98975.02;;;18.95;44.34
52653;BME280;39353;42.864;12.014;2023-02-12T11:03:43;98979.14;;;18.96;44.46
52653;BME280;39353;42.864;12.014;2023-02-12T11:06:16;98981.91;;;18.95;44.16
52653;BME280;39353;42.864;12.014;2023-02-12T11:08:59;98980.08;;;18.94;44.17
52653;BME280;39353;42.864;12.014;2023-02-12T11:11:29;98973.86;;;18.92;44.13
52653;BME280;39353;42.864;12.014;2023-02-12T11:13:58;98972.00;;;18.93;44.20
52653;BME280;39353;42.864;12.014;2023-02-12T11:16:58;98972.45;;;18.91;44.24
52653;BME280;39353;42.864;12.014;2023-02-12T11:19:30;98968.70;;;18.90;44.04
52653;BME280;39353;42.864;12.014;2023-02-12T11:22:14;98965.70;;;18.87;44.01
52653;BME280;39353;42.864;12.014;2023-02-12T11:25:01;98965.36;;;18.86;43.99
52653;BME280;39353;42.864;12.014;2023-02-12T11:30:56;98964.80;;;18.84;44.11
52653;BME280;39353;42.864;12.014;2023-02-12T11:33:38;98964.38;;;18.85;43.06
52653;BME280;39353;42.864;12.014;2023-02-12T11:36:24;98964.05;;;18.83;42.92
52653;BME280;39353;42.864;12.014;2023-02-12T11:39:18;98959.80;;;18.84;43.18
52653;BME280;39353;42.864;12.014;2023-02-12T11:44:57;98964.08;;;18.87;43.37
52653;BME280;39353;42.864;12.014;2023-02-12T11:47:31;98967.38;;;18.92;43.55
52653;BME280;39353;42.864;12.014;2023-02-12T11:50:29;98967.33;;;18.97;43.96
52653;BME280;39353;42.864;12.014;2023-02-12T11:53:22;98965.44;;;19.03;44.72
52653;BME280;39353;42.864;12.014;2023-02-12T11:56:11;98960.27;;;19.05;45.45
52653;BME280;39353;42.864;12.014;2023-02-12T11:58:40;98960.01;;;19.09;46.01
52653;BME280;39353;42.864;12.014;2023-02-12T12:01:29;98959.83;;;19.15;46.30
52653;BME280;39353;42.864;12.014;2023-02-12T12:04:18;98953.79;;;19.22;46.66
52653;BME280;39353;42.864;12.014;2023-02-12T12:06:55;98951.29;;;19.26;46.77
52653;BME280;39353;42.864;12.014;2023-02-12T12:09:49;98941.91;;;19.31;46.64
52653;BME280;39353;42.864;12.014;2023-02-12T12:15:31;98923.98;;;19.47;47.38
52653;BME280;39353;42.864;12.014;2023-02-12T12:21:59;98916.49;;;19.65;48.34
52653;BME280;39353;42.864;12.014;2023-02-12T12:25:03;98917.70;;;19.67;47.95
52653;BME280;39353;42.864;12.014;2023-02-12T12:31:05;98906.29;;;19.68;47.27
52653;BME280;39353;42.864;12.014;2023-02-12T12:36:56;98893.85;;;19.66;46.79
52653;BME280;39353;42.864;12.014;2023-02-12T12:42:55;98894.59;;;19.67;46.32
52653;BME280;39353;42.864;12.014;2023-02-12T12:48:51;98887.59;;;19.65;45.97
52653;BME280;39353;42.864;12.014;2023-02-12T12:54:14;98886.66;;;19.67;45.80
52653;BME280;39353;42.864;12.014;2023-02-12T13:00:05;98888.73;;;19.71;45.61
52653;BME280;39353;42.864;12.014;2023-02-12T13:09:19;98876.97;;;19.79;45.08
52653;BME280;39353;42.864;12.014;2023-02-12T13:21:31;98870.30;;;20.03;44.61
52653;BME280;39353;42.864;12.014;2023-02-12T13:27:40;98872.97;;;20.16;44.57
52653;BME280;39353;42.864;12.014;2023-02-12T13:30:35;98865.57;;;20.23;44.39
52653;BME280;39353;42.864;12.014;2023-02-12T13:33:24;98858.79;;;20.28;44.33
52653;BME280;39353;42.864;12.014;2023-02-12T13:35:56;98864.64;;;20.35;44.31
52653;BME280;39353;42.864;12.014;2023-02-12T13:38:43;98859.08;;;20.44;44.37
52653;BME280;39353;42.864;12.014;2023-02-12T13:41:27;98851.89;;;20.53;44.50
52653;BME280;39353;42.864;12.014;2023-02-12T13:44:25;98851.35;;;20.60;45.19
52653;BME280;39353;42.864;12.014;2023-02-12T13:53:33;98869.77;;;20.84;49.04
52653;BME280;39353;42.864;12.014;2023-02-12T13:59:00;98874.98;;;20.90;50.00
52653;BME280;39353;42.864;12.014;2023-02-12T14:01:43;98873.17;;;20.90;50.09
52653;BME280;39353;42.864;12.014;2023-02-12T14:04:40;98867.94;;;20.88;50.31
52653;BME280;39353;42.864;12.014;2023-02-12T14:07:13;98863.99;;;20.88;50.23
52653;BME280;39353;42.864;12.014;2023-02-12T14:23:39;98850.48;;;20.80;47.47
52653;BME280;39353;42.864;12.014;2023-02-12T14:26:23;98856.86;;;20.78;46.71
52653;BME280;39353;42.864;12.014;2023-02-12T14:29:18;98855.20;;;20.74;46.13
52653;BME280;39353;42.864;12.014;2023-02-12T14:32:01;98861.58;;;20.71;45.76
52653;BME280;39353;42.864;12.014;2023-02-12T14:34:42;98861.73;;;20.72;45.57
52653;BME280;39353;42.864;12.014;2023-02-12T14:37:15;98856.83;;;20.72;45.36
52653;BME280;39353;42.864;12.014;2023-02-12T14:40:35;98861.39;;;20.72;45.29
52653;BME280;39353;42.864;12.014;2023-02-12T14:43:26;98866.80;;;20.68;45.08
52653;BME280;39353;42.864;12.014;2023-02-12T14:49:02;98859.09;;;20.65;44.71
52653;BME280;39353;42.864;12.014;2023-02-12T14:54:36;98860.20;;;20.60;42.77
52653;BME280;39353;42.864;12.014;2023-02-12T14:57:39;98858.79;;;20.61;43.03
52653;BME280;39353;42.864;12.014;2023-02-12T15:00:41;98861.46;;;20.64;43.27
52653;BME280;39353;42.864;12.014;2023-02-12T15:06:23;98865.77;;;20.69;43.25
52653;BME280;39353;42.864;12.014;2023-02-12T15:09:02;98867.25;;;20.70;43.19
52653;BME280;39353;42.864;12.014;2023-02-12T15:12:01;98872.03;;;20.71;43.07
52653;BME280;39353;42.864;12.014;2023-02-12T15:17:55;98866.70;;;20.73;42.97
52653;BME280;39353;42.864;12.014;2023-02-12T15:20:55;98868.70;;;20.73;43.03
52653;BME280;39353;42.864;12.014;2023-02-12T15:23:37;98866.40;;;20.74;42.99
52653;BME280;39353;42.864;12.014;2023-02-12T15:26:18;98868.14;;;20.75;42.57
52653;BME280;39353;42.864;12.014;2023-02-12T15:28:49;98867.38;;;20.74;42.29
52653;BME280;39353;42.864;12.014;2023-02-12T15:31:25;98869.43;;;20.70;42.03
52653;BME280;39353;42.864;12.014;2023-02-12T15:33:55;98874.54;;;20.67;41.28
52653;BME280;39353;42.864;12.014;2023-02-12T15:36:29;98882.28;;;20.64;41.27
52653;BME280;39353;42.864;12.014;2023-02-12T15:39:07;98888.97;;;20.62;40.95
52653;BME280;39353;42.864;12.014;2023-02-12T15:41:50;98880.02;;;20.61;40.56
52653;BME280;39353;42.864;12.014;2023-02-12T15:44:32;98877.84;;;20.61;40.69
52653;BME280;39353;42.864;12.014;2023-02-12T15:47:14;98877.45;;;20.60;40.52
52653;BME280;39353;42.864;12.014;2023-02-12T15:49:43;98879.16;;;20.59;40.71
52653;BME280;39353;42.864;12.014;2023-02-12T15:52:23;98879.41;;;20.63;40.58
52653;BME280;39353;42.864;12.014;2023-02-12T15:55:16;98885.95;;;20.67;40.51
52653;BME280;39353;42.864;12.014;2023-02-12T15:57:52;98892.11;;;20.69;40.77
52653;BME280;39353;42.864;12.014;2023-02-12T16:03:00;98887.98;;;20.73;40.59
52653;BME280;39353;42.864;12.014;2023-02-12T16:05:42;98892.63;;;20.75;40.66
52653;BME280;39353;42.864;12.014;2023-02-12T16:08:24;98898.86;;;20.78;40.75
52653;BME280;39353;42.864;12.014;2023-02-12T16:11:10;98905.48;;;20.80;40.80
52653;BME280;39353;42.864;12.014;2023-02-12T16:14:07;98905.90;;;20.83;40.48
52653;BME280;39353;42.864;12.014;2023-02-12T16:16:47;98910.29;;;20.84;40.38
52653;BME280;39353;42.864;12.014;2023-02-12T16:22:14;98907.52;;;20.88;40.48
52653;BME280;39353;42.864;12.014;2023-02-12T16:24:57;98909.63;;;20.91;40.48
52653;BME280;39353;42.864;12.014;2023-02-12T16:27:39;98916.04;;;20.92;40.36
52653;BME280;39353;42.864;12.014;2023-02-12T16:39:03;98920.22;;;20.86;40.34